Terminal Aerodrome Forecast
Issued by NWS

Home | Current Version | Previous Version | Text Only | Print | Product List | Glossary On
Versions: 1 2 3 4 5 6 7 8 9 10 11 12 13 14 15 16 17 18 19 20 21 22 23 24 25 26 27 28
000
FTUS46 KLOX 310300 AAA
TAFLAX
TAF AMD
KLAX 310300Z 3103/0106 27005KT P6SM FEW200 SCT250
     FM310500 VRB03KT P6SM SKC
     FM311100 VRB03KT 4SM BR OVC008
     FM311600 27006KT 6SM HZ SCT010
     FM312000 27011KT P6SM SKC
     FM010400 26007KT 4SM BR BKN007=

USA.gov is the U.S. government's official web portal to all federal, state and local government web resources and services.